Terminal Aerodrome Forecast
Issued by NWS Goodland, KS

Home | Current Version | Previous Version | Text Only | Print | Product List | Glossary On
Versions: 1 2 3 4 5 6 7 8 9 10 11 12 13 14 15 16 17
000
FTUS43 KGLD 031720
TAFGLD
TAF
KGLD 031720Z 0318/0418 14008KT P6SM BKN150
     FM032100 17012G18KT P6SM VCSH FEW090 BKN150
     FM040200 16010KT P6SM VCTS FEW090CB BKN120
     FM040700 20008KT P6SM BKN120
     FM041000 24007KT P6SM FEW100=

USA.gov is the U.S. government's official web portal to all federal, state and local government web resources and services.